sensor_id;sensor_type;location;lat;lon;timestamp;P1;durP1;ratioP1;P2;durP2;ratioP2
55190;SDS011;41070;50.360;18.742;2024-01-10T00:02:07;94.60;;;31.20;;
55190;SDS011;41070;50.360;18.742;2024-01-10T00:04:35;110.30;;;40.30;;
55190;SDS011;41070;50.360;18.742;2024-01-10T00:07:07;123.90;;;40.80;;
55190;SDS011;41070;50.360;18.742;2024-01-10T00:09:43;95.70;;;34.70;;
55190;SDS011;41070;50.360;18.742;2024-01-10T00:12:13;114.80;;;38.70;;
55190;SDS011;41070;50.360;18.742;2024-01-10T00:14:59;113.80;;;40.80;;
55190;SDS011;41070;50.360;18.742;2024-01-10T00:17:36;121.80;;;42.10;;
55190;SDS011;41070;50.360;18.742;2024-01-10T00:20:07;111.90;;;37.30;;
55190;SDS011;41070;50.360;18.742;2024-01-10T00:22:49;105.30;;;33.90;;
55190;SDS011;41070;50.360;18.742;2024-01-10T00:25:17;76.40;;;28.30;;
55190;SDS011;41070;50.360;18.742;2024-01-10T00:27:52;96.10;;;31.40;;
55190;SDS011;41070;50.360;18.742;2024-01-10T00:30:21;122.70;;;33.40;;
55190;SDS011;41070;50.360;18.742;2024-01-10T00:32:49;103.40;;;34.50;;
55190;SDS011;41070;50.360;18.742;2024-01-10T00:35:17;80.60;;;26.80;;
55190;SDS011;41070;50.360;18.742;2024-01-10T00:37:45;88.50;;;30.80;;
55190;SDS011;41070;50.360;18.742;2024-01-10T00:40:15;81.60;;;29.10;;
55190;SDS011;41070;50.360;18.742;2024-01-10T00:43:09;87.10;;;28.00;;
55190;SDS011;41070;50.360;18.742;2024-01-10T00:45:40;89.70;;;29.90;;
55190;SDS011;41070;50.360;18.742;2024-01-10T00:48:08;113.90;;;37.90;;
55190;SDS011;41070;50.360;18.742;2024-01-10T00:50:36;128.30;;;42.80;;
55190;SDS011;41070;50.360;18.742;2024-01-10T00:53:04;139.40;;;43.60;;
55190;SDS011;41070;50.360;18.742;2024-01-10T00:55:42;111.80;;;38.70;;
55190;SDS011;41070;50.360;18.742;2024-01-10T00:58:18;173.90;;;54.70;;
55190;SDS011;41070;50.360;18.742;2024-01-10T01:00:47;166.10;;;49.50;;
55190;SDS011;41070;50.360;18.742;2024-01-10T01:03:15;131.90;;;45.20;;
55190;SDS011;41070;50.360;18.742;2024-01-10T01:05:43;134.00;;;44.50;;
55190;SDS011;41070;50.360;18.742;2024-01-10T01:08:26;129.60;;;43.30;;
55190;SDS011;41070;50.360;18.742;2024-01-10T01:10:57;133.70;;;44.70;;
55190;SDS011;41070;50.360;18.742;2024-01-10T01:13:25;150.70;;;46.90;;
55190;SDS011;41070;50.360;18.742;2024-01-10T01:16:10;136.10;;;43.20;;
55190;SDS011;41070;50.360;18.742;2024-01-10T01:18:45;95.30;;;30.20;;
55190;SDS011;41070;50.360;18.742;2024-01-10T01:21:27;113.90;;;37.80;;
55190;SDS011;41070;50.360;18.742;2024-01-10T01:24:23;166.60;;;51.00;;
55190;SDS011;41070;50.360;18.742;2024-01-10T01:26:51;145.20;;;47.10;;
55190;SDS011;41070;50.360;18.742;2024-01-10T01:29:27;155.20;;;50.90;;
55190;SDS011;41070;50.360;18.742;2024-01-10T01:32:10;133.30;;;42.60;;
55190;SDS011;41070;50.360;18.742;2024-01-10T01:34:41;160.50;;;52.40;;
55190;SDS011;41070;50.360;18.742;2024-01-10T01:37:09;135.30;;;45.10;;
55190;SDS011;41070;50.360;18.742;2024-01-10T01:39:37;141.90;;;45.40;;
55190;SDS011;41070;50.360;18.742;2024-01-10T01:42:06;134.50;;;43.60;;
55190;SDS011;41070;50.360;18.742;2024-01-10T01:44:40;133.40;;;44.70;;
55190;SDS011;41070;50.360;18.742;2024-01-10T01:47:08;145.30;;;48.80;;
55190;SDS011;41070;50.360;18.742;2024-01-10T01:49:41;160.70;;;49.30;;
55190;SDS011;41070;50.360;18.742;2024-01-10T01:52:10;122.40;;;42.40;;
55190;SDS011;41070;50.360;18.742;2024-01-10T01:54:41;123.20;;;42.80;;
55190;SDS011;41070;50.360;18.742;2024-01-10T01:57:25;151.20;;;50.70;;
55190;SDS011;41070;50.360;18.742;2024-01-10T01:59:53;152.80;;;48.10;;
55190;SDS011;41070;50.360;18.742;2024-01-10T02:02:22;156.60;;;51.00;;
55190;SDS011;41070;50.360;18.742;2024-01-10T02:05:01;150.80;;;49.50;;
55190;SDS011;41070;50.360;18.742;2024-01-10T02:07:30;117.60;;;42.80;;
55190;SDS011;41070;50.360;18.742;2024-01-10T02:10:02;86.20;;;28.80;;
55190;SDS011;41070;50.360;18.742;2024-01-10T02:12:34;88.20;;;30.50;;
55190;SDS011;41070;50.360;18.742;2024-01-10T02:15:02;93.80;;;30.50;;
55190;SDS011;41070;50.360;18.742;2024-01-10T02:17:42;102.00;;;33.30;;
55190;SDS011;41070;50.360;18.742;2024-01-10T02:20:12;84.80;;;31.00;;
55190;SDS011;41070;50.360;18.742;2024-01-10T02:22:59;114.80;;;36.90;;
55190;SDS011;41070;50.360;18.742;2024-01-10T02:25:31;94.40;;;33.00;;
55190;SDS011;41070;50.360;18.742;2024-01-10T02:28:12;107.50;;;34.60;;
55190;SDS011;41070;50.360;18.742;2024-01-10T02:30:40;115.90;;;38.00;;
55190;SDS011;41070;50.360;18.742;2024-01-10T02:33:23;90.20;;;29.50;;
55190;SDS011;41070;50.360;18.742;2024-01-10T02:35:59;93.90;;;32.90;;
55190;SDS011;41070;50.360;18.742;2024-01-10T02:38:35;128.90;;;43.40;;
55190;SDS011;41070;50.360;18.742;2024-01-10T02:41:13;105.50;;;33.50;;
55190;SDS011;41070;50.360;18.742;2024-01-10T02:43:42;99.70;;;36.10;;
55190;SDS011;41070;50.360;18.742;2024-01-10T02:46:17;118.00;;;41.30;;
55190;SDS011;41070;50.360;18.742;2024-01-10T02:49:13;102.80;;;34.60;;
55190;SDS011;41070;50.360;18.742;2024-01-10T02:51:53;103.60;;;33.70;;
55190;SDS011;41070;50.360;18.742;2024-01-10T02:54:28;109.10;;;36.00;;
55190;SDS011;41070;50.360;18.742;2024-01-10T02:56:59;84.00;;;30.30;;
55190;SDS011;41070;50.360;18.742;2024-01-10T02:59:27;72.20;;;27.90;;
55190;SDS011;41070;50.360;18.742;2024-01-10T03:01:56;115.30;;;39.10;;
55190;SDS011;41070;50.360;18.742;2024-01-10T03:04:37;127.50;;;38.40;;
55190;SDS011;41070;50.360;18.742;2024-01-10T03:07:30;118.40;;;38.00;;
55190;SDS011;41070;50.360;18.742;2024-01-10T03:10:03;108.20;;;38.20;;
55190;SDS011;41070;50.360;18.742;2024-01-10T03:12:42;135.40;;;45.00;;
55190;SDS011;41070;50.360;18.742;2024-01-10T03:15:21;104.80;;;41.50;;
55190;SDS011;41070;50.360;18.742;2024-01-10T03:17:50;100.70;;;36.50;;
55190;SDS011;41070;50.360;18.742;2024-01-10T03:20:18;110.20;;;37.80;;
55190;SDS011;41070;50.360;18.742;2024-01-10T03:22:48;101.70;;;36.70;;
55190;SDS011;41070;50.360;18.742;2024-01-10T03:25:38;125.20;;;41.70;;
55190;SDS011;41070;50.360;18.742;2024-01-10T03:28:06;120.00;;;38.40;;
55190;SDS011;41070;50.360;18.742;2024-01-10T03:30:38;113.60;;;40.50;;
55190;SDS011;41070;50.360;18.742;2024-01-10T03:33:41;118.20;;;38.10;;
55190;SDS011;41070;50.360;18.742;2024-01-10T03:36:14;113.60;;;40.20;;
55190;SDS011;41070;50.360;18.742;2024-01-10T03:38:49;98.20;;;38.00;;
55190;SDS011;41070;50.360;18.742;2024-01-10T03:41:20;99.30;;;37.40;;
55190;SDS011;41070;50.360;18.742;2024-01-10T03:44:03;137.80;;;42.40;;
55190;SDS011;41070;50.360;18.742;2024-01-10T03:46:32;123.40;;;40.50;;
55190;SDS011;41070;50.360;18.742;2024-01-10T03:49:02;113.60;;;40.30;;
55190;SDS011;41070;50.360;18.742;2024-01-10T03:51:30;121.60;;;40.40;;
55190;SDS011;41070;50.360;18.742;2024-01-10T03:54:07;114.10;;;37.50;;
55190;SDS011;41070;50.360;18.742;2024-01-10T03:59:04;127.60;;;43.00;;
55190;SDS011;41070;50.360;18.742;2024-01-10T04:01:35;135.10;;;45.20;;
55190;SDS011;41070;50.360;18.742;2024-01-10T04:04:05;116.70;;;43.10;;
55190;SDS011;41070;50.360;18.742;2024-01-10T04:06:34;121.50;;;40.50;;
55190;SDS011;41070;50.360;18.742;2024-01-10T04:09:02;134.20;;;41.20;;
55190;SDS011;41070;50.360;18.742;2024-01-10T04:14:23;140.10;;;44.40;;
55190;SDS011;41070;50.360;18.742;2024-01-10T04:16:51;125.20;;;44.00;;
55190;SDS011;41070;50.360;18.742;2024-01-10T04:19:28;104.80;;;37.00;;
55190;SDS011;41070;50.360;18.742;2024-01-10T04:23:04;124.10;;;38.50;;
55190;SDS011;41070;50.360;18.742;2024-01-10T04:25:31;84.40;;;29.00;;
55190;SDS011;41070;50.360;18.742;2024-01-10T04:27:59;104.90;;;34.60;;
55190;SDS011;41070;50.360;18.742;2024-01-10T04:32:55;103.90;;;34.40;;
55190;SDS011;41070;50.360;18.742;2024-01-10T04:35:28;87.60;;;30.00;;
55190;SDS011;41070;50.360;18.742;2024-01-10T04:37:55;111.70;;;39.10;;
55190;SDS011;41070;50.360;18.742;2024-01-10T04:44:01;109.70;;;38.40;;
55190;SDS011;41070;50.360;18.742;2024-01-10T04:46:29;108.60;;;37.80;;
55190;SDS011;41070;50.360;18.742;2024-01-10T04:52:12;98.70;;;35.30;;
55190;SDS011;41070;50.360;18.742;2024-01-10T04:57:31;96.60;;;35.80;;
55190;SDS011;41070;50.360;18.742;2024-01-10T04:59:59;96.10;;;35.60;;
55190;SDS011;41070;50.360;18.742;2024-01-10T05:02:50;124.20;;;43.80;;
55190;SDS011;41070;50.360;18.742;2024-01-10T05:05:17;129.80;;;43.10;;
55190;SDS011;41070;50.360;18.742;2024-01-10T05:07:53;150.80;;;46.70;;
55190;SDS011;41070;50.360;18.742;2024-01-10T05:10:26;132.20;;;40.90;;
55190;SDS011;41070;50.360;18.742;2024-01-10T05:12:52;139.40;;;46.90;;
55190;SDS011;41070;50.360;18.742;2024-01-10T05:17:51;158.10;;;48.50;;
55190;SDS011;41070;50.360;18.742;2024-01-10T05:20:25;155.60;;;50.90;;
55190;SDS011;41070;50.360;18.742;2024-01-10T05:22:54;151.90;;;49.10;;
55190;SDS011;41070;50.360;18.742;2024-01-10T05:25:24;137.90;;;45.50;;
55190;SDS011;41070;50.360;18.742;2024-01-10T05:28:05;152.60;;;49.70;;
55190;SDS011;41070;50.360;18.742;2024-01-10T05:30:32;144.50;;;44.90;;
55190;SDS011;41070;50.360;18.742;2024-01-10T05:32:59;140.70;;;45.60;;
55190;SDS011;41070;50.360;18.742;2024-01-10T05:37:52;155.50;;;61.60;;
55190;SDS011;41070;50.360;18.742;2024-01-10T05:42:45;141.40;;;49.30;;
55190;SDS011;41070;50.360;18.742;2024-01-10T05:47:43;136.70;;;46.70;;
55190;SDS011;41070;50.360;18.742;2024-01-10T05:53:07;133.10;;;46.10;;
55190;SDS011;41070;50.360;18.742;2024-01-10T05:55:34;119.50;;;39.60;;
55190;SDS011;41070;50.360;18.742;2024-01-10T05:58:01;134.10;;;45.40;;
55190;SDS011;41070;50.360;18.742;2024-01-10T06:02:54;119.70;;;42.50;;
55190;SDS011;41070;50.360;18.742;2024-01-10T06:05:22;110.00;;;39.60;;
55190;SDS011;41070;50.360;18.742;2024-01-10T06:07:53;117.00;;;40.80;;
55190;SDS011;41070;50.360;18.742;2024-01-10T06:10:22;92.20;;;35.00;;
55190;SDS011;41070;50.360;18.742;2024-01-10T06:12:48;130.70;;;45.10;;
55190;SDS011;41070;50.360;18.742;2024-01-10T06:15:22;115.90;;;41.40;;
55190;SDS011;41070;50.360;18.742;2024-01-10T06:18:01;115.60;;;39.40;;
55190;SDS011;41070;50.360;18.742;2024-01-10T06:20:28;106.70;;;38.50;;
55190;SDS011;41070;50.360;18.742;2024-01-10T06:22:57;70.50;;;30.10;;
55190;SDS011;41070;50.360;18.742;2024-01-10T06:25:23;124.30;;;41.20;;
55190;SDS011;41070;50.360;18.742;2024-01-10T06:30:18;145.30;;;51.10;;
55190;SDS011;41070;50.360;18.742;2024-01-10T06:35:11;155.60;;;59.60;;
55190;SDS011;41070;50.360;18.742;2024-01-10T06:37:38;190.40;;;58.00;;
55190;SDS011;41070;50.360;18.742;2024-01-10T06:40:05;163.60;;;58.20;;
55190;SDS011;41070;50.360;18.742;2024-01-10T06:42:32;190.20;;;60.10;;
55190;SDS011;41070;50.360;18.742;2024-01-10T06:44:59;174.70;;;55.00;;
55190;SDS011;41070;50.360;18.742;2024-01-10T06:47:29;145.20;;;50.50;;
55190;SDS011;41070;50.360;18.742;2024-01-10T06:50:14;177.60;;;57.30;;
55190;SDS011;41070;50.360;18.742;2024-01-10T06:52:47;165.40;;;54.80;;
55190;SDS011;41070;50.360;18.742;2024-01-10T06:55:14;104.70;;;37.80;;
55190;SDS011;41070;50.360;18.742;2024-01-10T06:57:41;133.10;;;47.00;;
55190;SDS011;41070;50.360;18.742;2024-01-10T07:00:11;175.30;;;60.20;;
55190;SDS011;41070;50.360;18.742;2024-01-10T07:02:43;154.40;;;53.90;;
55190;SDS011;41070;50.360;18.742;2024-01-10T07:05:09;157.10;;;56.20;;
55190;SDS011;41070;50.360;18.742;2024-01-10T07:07:36;161.70;;;56.80;;
55190;SDS011;41070;50.360;18.742;2024-01-10T07:10:03;152.90;;;53.80;;
55190;SDS011;41070;50.360;18.742;2024-01-10T07:18:29;154.00;;;52.90;;
55190;SDS011;41070;50.360;18.742;2024-01-10T07:20:57;161.10;;;54.30;;
55190;SDS011;41070;50.360;18.742;2024-01-10T07:23:27;150.20;;;51.20;;
55190;SDS011;41070;50.360;18.742;2024-01-10T07:25:56;124.20;;;43.40;;
55190;SDS011;41070;50.360;18.742;2024-01-10T07:28:24;140.60;;;47.50;;
55190;SDS011;41070;50.360;18.742;2024-01-10T07:30:51;140.80;;;49.40;;
55190;SDS011;41070;50.360;18.742;2024-01-10T07:35:44;167.80;;;56.10;;
55190;SDS011;41070;50.360;18.742;2024-01-10T07:38:40;152.50;;;51.00;;
55190;SDS011;41070;50.360;18.742;2024-01-10T07:43:36;143.40;;;53.20;;
55190;SDS011;41070;50.360;18.742;2024-01-10T07:46:03;154.10;;;53.10;;
55190;SDS011;41070;50.360;18.742;2024-01-10T07:48:32;150.40;;;53.40;;
55190;SDS011;41070;50.360;18.742;2024-01-10T07:51:14;176.60;;;55.90;;
55190;SDS011;41070;50.360;18.742;2024-01-10T07:53:49;182.50;;;61.70;;
55190;SDS011;41070;50.360;18.742;2024-01-10T07:56:34;199.40;;;65.50;;
55190;SDS011;41070;50.360;18.742;2024-01-10T07:59:00;178.20;;;63.50;;
55190;SDS011;41070;50.360;18.742;2024-01-10T08:01:54;199.40;;;68.60;;
55190;SDS011;41070;50.360;18.742;2024-01-10T08:04:33;203.30;;;68.10;;
55190;SDS011;41070;50.360;18.742;2024-01-10T08:06:59;214.20;;;73.20;;
55190;SDS011;41070;50.360;18.742;2024-01-10T08:09:29;197.30;;;68.60;;
55190;SDS011;41070;50.360;18.742;2024-01-10T08:11:59;207.60;;;68.30;;
55190;SDS011;41070;50.360;18.742;2024-01-10T08:14:25;223.60;;;75.30;;
55190;SDS011;41070;50.360;18.742;2024-01-10T08:16:55;235.00;;;76.60;;
55190;SDS011;41070;50.360;18.742;2024-01-10T08:19:26;244.30;;;82.90;;
55190;SDS011;41070;50.360;18.742;2024-01-10T08:21:57;228.10;;;79.30;;
55190;SDS011;41070;50.360;18.742;2024-01-10T08:24:44;225.40;;;82.60;;
55190;SDS011;41070;50.360;18.742;2024-01-10T08:27:12;253.90;;;83.40;;
55190;SDS011;41070;50.360;18.742;2024-01-10T08:29:40;234.10;;;82.80;;
55190;SDS011;41070;50.360;18.742;2024-01-10T08:32:31;256.50;;;83.50;;
55190;SDS011;41070;50.360;18.742;2024-01-10T08:35:00;256.50;;;86.10;;
55190;SDS011;41070;50.360;18.742;2024-01-10T08:37:27;253.60;;;88.20;;
55190;SDS011;41070;50.360;18.742;2024-01-10T08:39:54;242.50;;;84.30;;
55190;SDS011;41070;50.360;18.742;2024-01-10T08:44:46;225.90;;;82.10;;
55190;SDS011;41070;50.360;18.742;2024-01-10T08:47:13;226.10;;;81.10;;
55190;SDS011;41070;50.360;18.742;2024-01-10T08:49:40;207.90;;;78.30;;
55190;SDS011;41070;50.360;18.742;2024-01-10T08:54:46;223.10;;;80.00;;
55190;SDS011;41070;50.360;18.742;2024-01-10T08:57:24;208.90;;;77.10;;
55190;SDS011;41070;50.360;18.742;2024-01-10T09:00:16;226.90;;;80.60;;
55190;SDS011;41070;50.360;18.742;2024-01-10T09:02:44;209.90;;;78.90;;
55190;SDS011;41070;50.360;18.742;2024-01-10T09:05:23;214.60;;;76.70;;
55190;SDS011;41070;50.360;18.742;2024-01-10T09:07:50;206.10;;;72.10;;
55190;SDS011;41070;50.360;18.742;2024-01-10T09:10:25;210.90;;;72.50;;
55190;SDS011;41070;50.360;18.742;2024-01-10T09:12:54;196.60;;;74.60;;
55190;SDS011;41070;50.360;18.742;2024-01-10T09:15:21;198.30;;;70.50;;
55190;SDS011;41070;50.360;18.742;2024-01-10T09:17:50;195.80;;;69.90;;
55190;SDS011;41070;50.360;18.742;2024-01-10T09:20:18;189.70;;;70.10;;
55190;SDS011;41070;50.360;18.742;2024-01-10T09:23:00;200.70;;;72.60;;
55190;SDS011;41070;50.360;18.742;2024-01-10T09:25:26;187.20;;;70.00;;
55190;SDS011;41070;50.360;18.742;2024-01-10T09:27:53;217.30;;;73.90;;
55190;SDS011;41070;50.360;18.742;2024-01-10T09:30:22;210.10;;;78.20;;
55190;SDS011;41070;50.360;18.742;2024-01-10T09:32:50;233.00;;;82.30;;
55190;SDS011;41070;50.360;18.742;2024-01-10T09:35:17;229.50;;;80.70;;
55190;SDS011;41070;50.360;18.742;2024-01-10T09:37:43;219.90;;;83.50;;
55190;SDS011;41070;50.360;18.742;2024-01-10T09:40:17;223.10;;;83.40;;
55190;SDS011;41070;50.360;18.742;2024-01-10T09:42:48;203.00;;;74.90;;
55190;SDS011;41070;50.360;18.742;2024-01-10T09:45:17;210.30;;;78.40;;
55190;SDS011;41070;50.360;18.742;2024-01-10T09:47:46;236.50;;;81.90;;
55190;SDS011;41070;50.360;18.742;2024-01-10T09:50:15;220.10;;;78.40;;
55190;SDS011;41070;50.360;18.742;2024-01-10T09:52:48;222.90;;;82.00;;
55190;SDS011;41070;50.360;18.742;2024-01-10T09:55:44;202.30;;;75.30;;
55190;SDS011;41070;50.360;18.742;2024-01-10T09:58:15;204.30;;;75.20;;
55190;SDS011;41070;50.360;18.742;2024-01-10T10:00:43;200.80;;;75.60;;
55190;SDS011;41070;50.360;18.742;2024-01-10T10:03:11;220.20;;;81.10;;
55190;SDS011;41070;50.360;18.742;2024-01-10T10:05:46;205.10;;;74.50;;
55190;SDS011;41070;50.360;18.742;2024-01-10T10:11:12;189.20;;;71.60;;
55190;SDS011;41070;50.360;18.742;2024-01-10T10:13:39;200.60;;;73.90;;
55190;SDS011;41070;50.360;18.742;2024-01-10T10:16:07;196.30;;;73.30;;
55190;SDS011;41070;50.360;18.742;2024-01-10T10:18:35;194.60;;;75.50;;
55190;SDS011;41070;50.360;18.742;2024-01-10T10:21:12;215.00;;;79.50;;
55190;SDS011;41070;50.360;18.742;2024-01-10T10:23:40;204.70;;;75.20;;
55190;SDS011;41070;50.360;18.742;2024-01-10T10:26:27;192.50;;;74.20;;
55190;SDS011;41070;50.360;18.742;2024-01-10T10:28:55;203.80;;;72.20;;
55190;SDS011;41070;50.360;18.742;2024-01-10T10:31:37;193.40;;;75.90;;
55190;SDS011;41070;50.360;18.742;2024-01-10T10:34:04;204.20;;;74.90;;
55190;SDS011;41070;50.360;18.742;2024-01-10T10:36:31;188.20;;;70.50;;
55190;SDS011;41070;50.360;18.742;2024-01-10T10:39:15;163.10;;;64.40;;
55190;SDS011;41070;50.360;18.742;2024-01-10T10:41:42;140.60;;;59.30;;
55190;SDS011;41070;50.360;18.742;2024-01-10T10:46:42;145.50;;;52.50;;
55190;SDS011;41070;50.360;18.742;2024-01-10T10:58:41;135.70;;;52.70;;
55190;SDS011;41070;50.360;18.742;2024-01-10T11:01:11;129.20;;;50.70;;
55190;SDS011;41070;50.360;18.742;2024-01-10T11:03:45;137.70;;;51.20;;
55190;SDS011;41070;50.360;18.742;2024-01-10T11:06:20;142.00;;;54.50;;
55190;SDS011;41070;50.360;18.742;2024-01-10T11:11:30;135.20;;;49.70;;
55190;SDS011;41070;50.360;18.742;2024-01-10T11:14:41;119.80;;;48.80;;
55190;SDS011;41070;50.360;18.742;2024-01-10T11:24:19;133.20;;;50.10;;
55190;SDS011;41070;50.360;18.742;2024-01-10T11:26:50;130.80;;;49.40;;
55190;SDS011;41070;50.360;18.742;2024-01-10T11:29:18;129.40;;;48.60;;
55190;SDS011;41070;50.360;18.742;2024-01-10T11:31:46;118.70;;;48.10;;
55190;SDS011;41070;50.360;18.742;2024-01-10T11:40:09;125.50;;;46.30;;
55190;SDS011;41070;50.360;18.742;2024-01-10T11:42:41;125.30;;;46.30;;
55190;SDS011;41070;50.360;18.742;2024-01-10T11:45:35;122.70;;;46.20;;
55190;SDS011;41070;50.360;18.742;2024-01-10T11:48:08;112.60;;;44.00;;
55190;SDS011;41070;50.360;18.742;2024-01-10T11:53:38;121.00;;;44.70;;
55190;SDS011;41070;50.360;18.742;2024-01-10T11:56:15;117.50;;;44.60;;
55190;SDS011;41070;50.360;18.742;2024-01-10T11:59:03;118.60;;;45.40;;
55190;SDS011;41070;50.360;18.742;2024-01-10T12:01:41;107.00;;;46.30;;
55190;SDS011;41070;50.360;18.742;2024-01-10T12:04:10;115.10;;;45.50;;
55190;SDS011;41070;50.360;18.742;2024-01-10T12:06:37;116.80;;;47.10;;
55190;SDS011;41070;50.360;18.742;2024-01-10T12:09:04;120.70;;;44.60;;
55190;SDS011;41070;50.360;18.742;2024-01-10T12:11:48;116.70;;;45.00;;
55190;SDS011;41070;50.360;18.742;2024-01-10T12:14:26;106.00;;;41.90;;
55190;SDS011;41070;50.360;18.742;2024-01-10T12:16:54;115.70;;;43.70;;
55190;SDS011;41070;50.360;18.742;2024-01-10T12:19:20;119.90;;;43.60;;
55190;SDS011;41070;50.360;18.742;2024-01-10T12:21:50;112.00;;;42.30;;
55190;SDS011;41070;50.360;18.742;2024-01-10T12:24:18;105.40;;;39.80;;
55190;SDS011;41070;50.360;18.742;2024-01-10T12:26:46;107.90;;;42.60;;
55190;SDS011;41070;50.360;18.742;2024-01-10T12:29:18;113.80;;;43.70;;
55190;SDS011;41070;50.360;18.742;2024-01-10T12:31:51;101.70;;;42.50;;
55190;SDS011;41070;50.360;18.742;2024-01-10T12:34:17;115.70;;;44.70;;
55190;SDS011;41070;50.360;18.742;2024-01-10T12:36:44;106.20;;;42.10;;
55190;SDS011;41070;50.360;18.742;2024-01-10T12:39:12;106.90;;;43.30;;
55190;SDS011;41070;50.360;18.742;2024-01-10T12:41:41;104.40;;;40.30;;
55190;SDS011;41070;50.360;18.742;2024-01-10T12:44:31;112.70;;;43.50;;
55190;SDS011;41070;50.360;18.742;2024-01-10T12:47:03;107.30;;;42.10;;
55190;SDS011;41070;50.360;18.742;2024-01-10T12:49:31;106.40;;;43.70;;
55190;SDS011;41070;50.360;18.742;2024-01-10T12:51:58;112.20;;;42.90;;
55190;SDS011;41070;50.360;18.742;2024-01-10T12:58:00;107.10;;;41.70;;
55190;SDS011;41070;50.360;18.742;2024-01-10T13:00:33;99.80;;;40.90;;
55190;SDS011;41070;50.360;18.742;2024-01-10T13:03:24;117.60;;;43.90;;
55190;SDS011;41070;50.360;18.742;2024-01-10T13:06:10;108.10;;;41.70;;
55190;SDS011;41070;50.360;18.742;2024-01-10T13:08:55;110.20;;;42.40;;
55190;SDS011;41070;50.360;18.742;2024-01-10T13:23:23;133.90;;;53.60;;
55190;SDS011;41070;50.360;18.742;2024-01-10T13:26:11;131.00;;;51.00;;
55190;SDS011;41070;50.360;18.742;2024-01-10T13:28:38;127.00;;;51.00;;
55190;SDS011;41070;50.360;18.742;2024-01-10T13:31:28;149.70;;;55.90;;
55190;SDS011;41070;50.360;18.742;2024-01-10T13:33:58;160.20;;;57.20;;
55190;SDS011;41070;50.360;18.742;2024-01-10T13:36:28;153.20;;;57.70;;
55190;SDS011;41070;50.360;18.742;2024-01-10T13:39:20;144.80;;;57.20;;
55190;SDS011;41070;50.360;18.742;2024-01-10T13:41:47;150.90;;;57.60;;
55190;SDS011;41070;50.360;18.742;2024-01-10T13:44:32;157.80;;;58.60;;
55190;SDS011;41070;50.360;18.742;2024-01-10T13:46:59;92.70;;;36.80;;
55190;SDS011;41070;50.360;18.742;2024-01-10T13:49:25;162.50;;;56.50;;
55190;SDS011;41070;50.360;18.742;2024-01-10T13:51:52;138.70;;;52.40;;
55190;SDS011;41070;50.360;18.742;2024-01-10T13:54:18;147.30;;;56.50;;
55190;SDS011;41070;50.360;18.742;2024-01-10T13:56:46;166.10;;;58.00;;
55190;SDS011;41070;50.360;18.742;2024-01-10T13:59:14;154.90;;;57.70;;
55190;SDS011;41070;50.360;18.742;2024-01-10T14:01:50;142.90;;;54.00;;
55190;SDS011;41070;50.360;18.742;2024-01-10T14:04:21;141.30;;;54.70;;
55190;SDS011;41070;50.360;18.742;2024-01-10T14:07:10;131.00;;;54.20;;
55190;SDS011;41070;50.360;18.742;2024-01-10T14:12:07;103.90;;;42.40;;
55190;SDS011;41070;50.360;18.742;2024-01-10T14:14:33;98.30;;;41.00;;
55190;SDS011;41070;50.360;18.742;2024-01-10T14:17:02;108.40;;;44.50;;
55190;SDS011;41070;50.360;18.742;2024-01-10T14:19:29;99.30;;;39.40;;
55190;SDS011;41070;50.360;18.742;2024-01-10T14:22:14;128.30;;;49.00;;
55190;SDS011;41070;50.360;18.742;2024-01-10T14:24:43;134.70;;;51.60;;
55190;SDS011;41070;50.360;18.742;2024-01-10T14:27:13;144.70;;;53.10;;
55190;SDS011;41070;50.360;18.742;2024-01-10T14:29:43;149.60;;;50.70;;
55190;SDS011;41070;50.360;18.742;2024-01-10T14:32:09;122.30;;;49.40;;
55190;SDS011;41070;50.360;18.742;2024-01-10T14:35:01;128.80;;;48.50;;
55190;SDS011;41070;50.360;18.742;2024-01-10T14:40:35;115.40;;;45.80;;
55190;SDS011;41070;50.360;18.742;2024-01-10T14:43:02;91.90;;;39.30;;
55190;SDS011;41070;50.360;18.742;2024-01-10T14:45:30;87.00;;;37.50;;
55190;SDS011;41070;50.360;18.742;2024-01-10T14:48:20;97.50;;;39.30;;
55190;SDS011;41070;50.360;18.742;2024-01-10T14:50:46;113.40;;;46.00;;
55190;SDS011;41070;50.360;18.742;2024-01-10T14:55:39;127.70;;;47.10;;
55190;SDS011;41070;50.360;18.742;2024-01-10T14:58:06;88.20;;;37.30;;
55190;SDS011;41070;50.360;18.742;2024-01-10T15:00:33;94.80;;;41.00;;
55190;SDS011;41070;50.360;18.742;2024-01-10T15:03:05;120.50;;;45.00;;
55190;SDS011;41070;50.360;18.742;2024-01-10T15:08:41;98.50;;;38.00;;
55190;SDS011;41070;50.360;18.742;2024-01-10T15:11:08;96.40;;;41.10;;
55190;SDS011;41070;50.360;18.742;2024-01-10T15:13:37;104.10;;;38.00;;
55190;SDS011;41070;50.360;18.742;2024-01-10T15:16:45;132.90;;;49.20;;
55190;SDS011;41070;50.360;18.742;2024-01-10T15:19:12;132.60;;;49.50;;
55190;SDS011;41070;50.360;18.742;2024-01-10T15:21:38;139.10;;;49.30;;
55190;SDS011;41070;50.360;18.742;2024-01-10T15:24:14;130.10;;;47.00;;
55190;SDS011;41070;50.360;18.742;2024-01-10T15:26:44;111.70;;;44.70;;
55190;SDS011;41070;50.360;18.742;2024-01-10T15:29:11;103.70;;;38.80;;
55190;SDS011;41070;50.360;18.742;2024-01-10T15:31:37;95.50;;;38.90;;
55190;SDS011;41070;50.360;18.742;2024-01-10T15:34:04;121.50;;;43.30;;
55190;SDS011;41070;50.360;18.742;2024-01-10T15:39:53;97.80;;;38.40;;
55190;SDS011;41070;50.360;18.742;2024-01-10T15:42:20;92.60;;;37.10;;
55190;SDS011;41070;50.360;18.742;2024-01-10T15:45:01;124.90;;;45.40;;
55190;SDS011;41070;50.360;18.742;2024-01-10T15:47:28;121.20;;;46.10;;
55190;SDS011;41070;50.360;18.742;2024-01-10T15:50:09;122.40;;;45.50;;
55190;SDS011;41070;50.360;18.742;2024-01-10T15:52:36;123.30;;;45.20;;
55190;SDS011;41070;50.360;18.742;2024-01-10T15:58:04;117.70;;;44.00;;
55190;SDS011;41070;50.360;18.742;2024-01-10T16:00:36;97.60;;;41.00;;
55190;SDS011;41070;50.360;18.742;2024-01-10T16:03:03;110.20;;;40.70;;
55190;SDS011;41070;50.360;18.742;2024-01-10T16:05:34;107.50;;;39.90;;
55190;SDS011;41070;50.360;18.742;2024-01-10T16:08:02;127.60;;;44.20;;
55190;SDS011;41070;50.360;18.742;2024-01-10T16:10:28;114.20;;;44.50;;
55190;SDS011;41070;50.360;18.742;2024-01-10T16:12:55;120.90;;;44.70;;
55190;SDS011;41070;50.360;18.742;2024-01-10T16:15:22;115.80;;;42.70;;
55190;SDS011;41070;50.360;18.742;2024-01-10T16:18:09;104.90;;;39.80;;
55190;SDS011;41070;50.360;18.742;2024-01-10T16:20:36;116.80;;;39.90;;
55190;SDS011;41070;50.360;18.742;2024-01-10T16:23:17;141.40;;;50.50;;
55190;SDS011;41070;50.360;18.742;2024-01-10T16:35:13;132.90;;;48.30;;
55190;SDS011;41070;50.360;18.742;2024-01-10T16:37:46;133.50;;;47.50;;
55190;SDS011;41070;50.360;18.742;2024-01-10T16:40:14;154.70;;;52.50;;